Time;durP1;ratioP1;P1;durP2;ratioP2;P2;SDS_P1;SDS_P2;PMS_P1;PMS_P2;Temp;Humidity;BMP_temperature;BMP_pressure;BME280_temperature;BME280_humidity;BME280_pressure;Samples;Min_cycle;Max_cycle;Signal;HPM_P1;HPM_P2
2022/09/30 00:03:15;;;;;;;;;;;18.70;49.00;;;;;;8329566;28;20370;-47
2022/09/30 00:07:16;;;;;;;;;;;18.70;49.00;;;;;;8329920;28;19924;-48
2022/09/30 00:11:18;;;;;;;;;;;18.70;49.00;;;;;;8330050;28;19913;-44
2022/09/30 00:15:19;;;;;;;;;;;18.70;49.00;;;;;;8329289;28;19924;-46
2022/09/30 00:19:19;;;;;;;;;;;18.70;49.00;;;;;;8329831;28;19930;-44
2022/09/30 00:23:20;;;;;;;;;;;18.70;49.00;;;;;;8329804;28;20016;-45
2022/09/30 00:27:21;;;;;;;;;;;18.70;49.00;;;;;;8329312;28;19917;-44
2022/09/30 00:31:22;;;;;;;;;;;18.70;49.00;;;;;;8329476;28;19971;-45
2022/09/30 00:35:22;;;;;;;;;;;18.70;49.00;;;;;;8329499;28;19917;-45
2022/09/30 00:39:25;;;;;;;;;;;18.70;49.00;;;;;;8329771;28;20016;-44
2022/09/30 00:43:42;;;;;;;;;;;18.70;49.00;;;;;;8329521;28;19918;-45
2022/09/30 00:48:01;;;;;;;;;;;18.70;49.00;;;;;;8332863;28;19913;-44
2022/09/30 00:52:01;;;;;;;;;;;18.70;49.00;;;;;;8335480;28;19918;-47
2022/09/30 00:56:05;;;;;;;;;;;18.70;49.00;;;;;;8335222;28;19995;-45
2022/09/30 01:00:06;;;;;;;;;;;18.60;48.90;;;;;;8334791;28;19929;-47
2022/09/30 01:04:19;;;;;;;;;;;18.60;49.00;;;;;;8334103;28;19924;-47
2022/09/30 01:08:21;;;;;;;;;;;18.60;49.00;;;;;;8334855;28;20283;-45
2022/09/30 01:12:22;;;;;;;;;;;18.60;49.00;;;;;;8334259;28;19917;-44
2022/09/30 01:16:29;;;;;;;;;;;18.60;49.00;;;;;;8334354;28;19913;-44
2022/09/30 01:20:48;;;;;;;;;;;18.60;49.00;;;;;;8334490;28;19925;-45
2022/09/30 01:25:12;;;;;;;;;;;18.60;49.00;;;;;;8334250;28;19917;-45
2022/09/30 01:29:18;;;;;;;;;;;18.60;49.00;;;;;;8334741;28;19924;-44
2022/09/30 01:33:37;;;;;;;;;;;18.60;49.00;;;;;;8333825;28;20020;-45
2022/09/30 01:38:00;;;;;;;;;;;18.60;49.00;;;;;;8333721;28;20417;-46
2022/09/30 01:42:09;;;;;;;;;;;18.60;49.00;;;;;;8333376;28;19923;-45
2022/09/30 01:46:13;;;;;;;;;;;18.60;49.00;;;;;;8333608;28;19932;-45
2022/09/30 01:50:17;;;;;;;;;;;18.60;49.00;;;;;;8333564;28;19917;-45
2022/09/30 01:54:21;;;;;;;;;;;18.60;49.00;;;;;;8332812;28;19917;-48
2022/09/30 01:58:28;;;;;;;;;;;18.60;49.00;;;;;;8332955;28;19925;-44
2022/09/30 02:02:33;;;;;;;;;;;18.60;49.00;;;;;;8332990;28;19924;-45
2022/09/30 02:06:36;;;;;;;;;;;18.60;49.00;;;;;;8333033;28;20410;-47
2022/09/30 02:10:40;;;;;;;;;;;18.60;49.00;;;;;;8333179;28;20267;-46
2022/09/30 02:14:44;;;;;;;;;;;18.50;49.00;;;;;;8332294;28;19921;-44
2022/09/30 02:18:47;;;;;;;;;;;18.60;49.10;;;;;;8332833;28;19929;-46
2022/09/30 02:22:49;;;;;;;;;;;18.50;49.00;;;;;;8332992;28;19967;-47
2022/09/30 02:26:53;;;;;;;;;;;18.50;49.00;;;;;;8331999;28;20012;-44
2022/09/30 02:30:55;;;;;;;;;;;18.50;49.00;;;;;;8332749;28;19917;-46
2022/09/30 02:34:59;;;;;;;;;;;18.50;48.90;;;;;;8331893;28;19917;-47
2022/09/30 02:39:01;;;;;;;;;;;18.50;49.00;;;;;;8331388;28;20405;-45
2022/09/30 02:43:03;;;;;;;;;;;18.50;49.00;;;;;;8331864;28;19924;-44
2022/09/30 02:47:10;;;;;;;;;;;18.50;49.00;;;;;;8331784;28;19921;-48
2022/09/30 02:51:22;;;;;;;;;;;18.50;49.00;;;;;;8331438;28;19913;-45
2022/09/30 02:55:27;;;;;;;;;;;18.50;49.00;;;;;;8331828;28;19917;-45
2022/09/30 02:59:27;;;;;;;;;;;18.50;49.00;;;;;;8331215;28;19925;-45
2022/09/30 03:03:31;;;;;;;;;;;18.50;49.00;;;;;;8330729;28;19917;-45
2022/09/30 03:07:32;;;;;;;;;;;18.50;49.00;;;;;;8331180;28;19971;-45
2022/09/30 03:11:33;;;;;;;;;;;18.50;49.00;;;;;;8330155;28;20008;-45
2022/09/30 03:15:43;;;;;;;;;;;18.50;49.00;;;;;;8331370;28;19921;-47
2022/09/30 03:19:43;;;;;;;;;;;18.50;49.00;;;;;;8330677;28;19929;-48
2022/09/30 03:24:08;;;;;;;;;;;18.50;49.00;;;;;;8330344;28;19917;-45
2022/09/30 03:28:17;;;;;;;;;;;18.50;48.90;;;;;;8330582;28;19948;-46
2022/09/30 03:32:29;;;;;;;;;;;18.50;48.90;;;;;;8330589;28;20259;-47
2022/09/30 03:36:41;;;;;;;;;;;18.50;49.00;;;;;;8297599;28;20016;-44
2022/09/30 03:40:59;;;;;;;;;;;18.50;49.00;;;;;;8298053;28;19925;-45
2022/09/30 03:45:22;;;;;;;;;;;18.50;49.00;;;;;;8296630;28;20312;-44
2022/09/30 03:49:25;;;;;;;;;;;18.50;49.00;;;;;;8297616;28;19925;-45
2022/09/30 03:53:27;;;;;;;;;;;18.50;49.00;;;;;;8297861;28;19918;-48
2022/09/30 03:57:28;;;;;;;;;;;18.50;48.90;;;;;;8296982;28;19925;-46
2022/09/30 04:01:29;;;;;;;;;;;18.50;49.00;;;;;;8297892;28;19937;-45
2022/09/30 04:05:29;;;;;;;;;;;18.50;49.00;;;;;;8296448;28;19980;-44
2022/09/30 04:09:30;;;;;;;;;;;18.50;48.90;;;;;;8297309;28;19924;-44
2022/09/30 04:13:30;;;;;;;;;;;18.50;48.90;;;;;;8297165;28;19922;-44
2022/09/30 04:17:31;;;;;;;;;;;18.50;49.00;;;;;;8296684;28;19926;-44
2022/09/30 04:21:31;;;;;;;;;;;18.50;48.90;;;;;;8301485;28;19982;-44
2022/09/30 04:25:32;;;;;;;;;;;18.50;48.90;;;;;;8303667;28;19918;-45
2022/09/30 04:29:32;;;;;;;;;;;18.50;48.90;;;;;;8302858;28;19917;-44
2022/09/30 04:33:33;;;;;;;;;;;18.50;48.90;;;;;;8303068;28;20453;-45
2022/09/30 04:37:33;;;;;;;;;;;18.50;48.90;;;;;;8303048;28;19952;-46
2022/09/30 04:41:34;;;;;;;;;;;18.50;48.90;;;;;;8302742;28;19959;-44
2022/09/30 04:45:34;;;;;;;;;;;18.50;48.90;;;;;;8302619;28;19953;-43
2022/09/30 04:49:35;;;;;;;;;;;18.50;49.30;;;;;;8302747;28;19925;-45
2022/09/30 04:53:35;;;;;;;;;;;18.50;49.10;;;;;;8302092;28;19918;-44
2022/09/30 04:57:37;;;;;;;;;;;18.50;49.00;;;;;;8302205;28;19972;-44
2022/09/30 05:01:38;;;;;;;;;;;18.50;49.00;;;;;;8302571;28;19920;-45
2022/09/30 05:05:42;;;;;;;;;;;18.50;49.10;;;;;;8301644;28;19941;-44
2022/09/30 05:09:43;;;;;;;;;;;18.50;49.00;;;;;;8301984;28;19925;-44
2022/09/30 05:13:43;;;;;;;;;;;18.50;49.00;;;;;;8302100;28;20438;-44
2022/09/30 05:17:47;;;;;;;;;;;18.50;49.00;;;;;;8301328;28;19937;-45
2022/09/30 05:21:47;;;;;;;;;;;18.50;49.00;;;;;;8302386;28;19920;-44
2022/09/30 05:25:48;;;;;;;;;;;18.50;49.00;;;;;;8301526;28;19918;-43
2022/09/30 05:29:49;;;;;;;;;;;18.40;48.90;;;;;;8300999;28;19924;-44
2022/09/30 05:33:49;;;;;;;;;;;18.50;48.90;;;;;;8300503;28;20331;-44
2022/09/30 05:37:50;;;;;;;;;;;18.50;49.00;;;;;;8300846;28;19937;-44
2022/09/30 05:41:51;;;;;;;;;;;18.50;49.00;;;;;;8300825;28;20370;-45
2022/09/30 05:45:55;;;;;;;;;;;18.50;49.00;;;;;;8300826;28;19925;-44
2022/09/30 05:49:55;;;;;;;;;;;18.50;49.00;;;;;;8300789;28;19918;-45
2022/09/30 05:53:56;;;;;;;;;;;18.40;48.90;;;;;;8300176;28;19924;-45
2022/09/30 05:57:56;;;;;;;;;;;18.50;49.00;;;;;;8300583;28;20036;-44
2022/09/30 06:01:56;;;;;;;;;;;18.50;49.00;;;;;;8300818;28;20389;-43
2022/09/30 06:05:57;;;;;;;;;;;18.50;49.50;;;;;;8299854;28;19921;-44
2022/09/30 06:09:57;;;;;;;;;;;18.50;49.00;;;;;;8300100;28;19945;-44
2022/09/30 06:13:58;;;;;;;;;;;18.40;48.90;;;;;;8300133;28;19918;-44
2022/09/30 06:17:58;;;;;;;;;;;18.50;49.00;;;;;;8299538;28;19934;-44
2022/09/30 06:21:59;;;;;;;;;;;18.50;49.00;;;;;;8300443;28;19914;-43
2022/09/30 06:26:00;;;;;;;;;;;18.40;48.90;;;;;;8299705;28;19929;-43
2022/09/30 06:30:00;;;;;;;;;;;18.40;48.90;;;;;;8299139;28;20417;-44
2022/09/30 06:34:01;;;;;;;;;;;18.50;49.00;;;;;;8299665;28;20305;-44
2022/09/30 06:38:01;;;;;;;;;;;18.50;48.90;;;;;;8299176;28;19926;-43
2022/09/30 06:42:02;;;;;;;;;;;18.50;49.00;;;;;;8298973;28;19924;-43
2022/09/30 06:46:02;;;;;;;;;;;18.50;49.00;;;;;;8298150;28;19917;-43
2022/09/30 06:50:03;;;;;;;;;;;18.50;49.00;;;;;;8298937;28;19937;-44
2022/09/30 06:54:04;;;;;;;;;;;18.50;48.90;;;;;;8298332;28;20289;-43
2022/09/30 06:58:08;;;;;;;;;;;18.50;48.90;;;;;;8298869;28;20397;-43
2022/09/30 07:02:10;;;;;;;;;;;18.50;48.90;;;;;;8298952;28;19968;-44
2022/09/30 07:06:11;;;;;;;;;;;18.50;48.90;;;;;;8296731;28;19925;-44
2022/09/30 07:10:11;;;;;;;;;;;18.50;48.90;;;;;;8298485;28;20374;-43
2022/09/30 07:14:12;;;;;;;;;;;18.50;48.90;;;;;;8298242;28;19914;-44
2022/09/30 07:18:12;;;;;;;;;;;18.50;48.90;;;;;;8297684;28;20012;-44
2022/09/30 07:22:33;;;;;;;;;;;18.50;48.90;;;;;;8298323;28;20414;-44
2022/09/30 07:26:33;;;;;;;;;;;18.50;48.90;;;;;;8297728;28;19921;-45
2022/09/30 07:30:34;;;;;;;;;;;18.60;48.90;;;;;;8298083;28;20051;-44
2022/09/30 07:34:35;;;;;;;;;;;18.50;48.80;;;;;;8297629;28;19918;-45
2022/09/30 07:38:37;;;;;;;;;;;18.50;48.80;;;;;;8296998;28;19957;-44
2022/09/30 07:42:44;;;;;;;;;;;18.50;48.80;;;;;;8298176;28;19921;-45
2022/09/30 07:46:44;;;;;;;;;;;18.50;48.80;;;;;;8297709;28;19926;-44
2022/09/30 07:50:45;;;;;;;;;;;18.50;48.70;;;;;;8297007;28;20015;-44
2022/09/30 07:54:46;;;;;;;;;;;18.60;48.80;;;;;;8299012;28;19921;-46
2022/09/30 07:58:47;;;;;;;;;;;18.60;48.80;;;;;;8304169;28;19926;-44
2022/09/30 08:02:47;;;;;;;;;;;18.50;48.70;;;;;;8303833;28;19921;-45
2022/09/30 08:06:50;;;;;;;;;;;18.50;48.80;;;;;;8303901;28;19975;-45
2022/09/30 08:10:50;;;;;;;;;;;18.60;48.70;;;;;;8303705;28;19921;-44
2022/09/30 08:14:51;;;;;;;;;;;18.60;48.70;;;;;;8303255;28;19971;-43
2022/09/30 08:18:55;;;;;;;;;;;18.60;48.70;;;;;;8303619;28;19932;-43
2022/09/30 08:22:55;;;;;;;;;;;18.60;48.80;;;;;;8303812;28;19913;-43
2022/09/30 08:26:55;;;;;;;;;;;18.60;48.70;;;;;;8302668;28;20044;-42
2022/09/30 08:31:03;;;;;;;;;;;18.60;48.70;;;;;;8302955;28;19924;-43
2022/09/30 08:35:05;;;;;;;;;;;18.60;48.60;;;;;;8303003;28;20004;-42
2022/09/30 08:39:05;;;;;;;;;;;18.60;48.70;;;;;;8302315;28;19925;-43
2022/09/30 08:43:18;;;;;;;;;;;18.70;48.70;;;;;;8303295;28;20008;-44
2022/09/30 08:47:21;;;;;;;;;;;18.60;48.70;;;;;;8302529;28;20401;-43
2022/09/30 08:51:28;;;;;;;;;;;18.70;48.70;;;;;;8301906;28;19917;-43
2022/09/30 08:55:32;;;;;;;;;;;18.70;48.70;;;;;;8302376;28;20208;-43
2022/09/30 08:59:37;;;;;;;;;;;18.70;48.70;;;;;;8301891;28;20369;-42
2022/09/30 09:03:39;;;;;;;;;;;18.70;48.70;;;;;;8302403;28;19964;-43
2022/09/30 09:07:42;;;;;;;;;;;18.70;48.70;;;;;;8301125;28;19924;-44
2022/09/30 09:12:03;;;;;;;;;;;18.70;48.70;;;;;;8301675;28;19917;-43
2022/09/30 09:16:15;;;;;;;;;;;18.70;48.60;;;;;;8302146;28;19952;-43
2022/09/30 09:20:17;;;;;;;;;;;18.70;48.60;;;;;;8301698;28;19932;-44
2022/09/30 09:24:22;;;;;;;;;;;18.70;48.60;;;;;;8301120;28;19975;-43
2022/09/30 09:28:32;;;;;;;;;;;18.80;48.60;;;;;;8301818;28;20395;-43
2022/09/30 09:32:34;;;;;;;;;;;18.80;48.60;;;;;;8300978;28;19964;-42
2022/09/30 09:36:46;;;;;;;;;;;18.80;48.60;;;;;;8301541;28;20274;-43
2022/09/30 09:41:05;;;;;;;;;;;18.80;48.60;;;;;;8301057;28;19944;-44
2022/09/30 09:45:11;;;;;;;;;;;18.80;48.60;;;;;;8300519;28;19918;-44
2022/09/30 09:49:12;;;;;;;;;;;18.80;48.50;;;;;;8300788;28;20405;-43
2022/09/30 09:53:31;;;;;;;;;;;18.80;48.50;;;;;;8301022;28;19918;-42
2022/09/30 09:57:32;;;;;;;;;;;18.80;48.40;;;;;;8333227;28;20011;-43
2022/09/30 10:01:33;;;;;;;;;;;18.90;48.50;;;;;;8333390;28;19924;-42
2022/09/30 10:05:41;;;;;;;;;;;18.90;48.50;;;;;;8320815;28;19913;-42
2022/09/30 10:09:41;;;;;;;;;;;18.90;48.50;;;;;;8333181;28;19921;-43
2022/09/30 10:13:43;;;;;;;;;;;18.90;48.50;;;;;;8333006;28;19925;-44
2022/09/30 10:17:49;;;;;;;;;;;18.90;48.40;;;;;;8332064;28;19948;-42
2022/09/30 10:21:49;;;;;;;;;;;18.90;48.50;;;;;;8332767;28;19917;-43
2022/09/30 10:26:00;;;;;;;;;;;18.90;48.90;;;;;;8332688;28;20296;-42
2022/09/30 10:30:01;;;;;;;;;;;19.00;48.40;;;;;;8332116;28;19995;-42
2022/09/30 10:34:07;;;;;;;;;;;18.90;48.40;;;;;;8332697;28;19920;-42
2022/09/30 10:38:11;;;;;;;;;;;19.00;48.40;;;;;;8331915;28;19933;-42
2022/09/30 10:42:17;;;;;;;;;;;19.00;48.30;;;;;;8331474;28;19923;-42
2022/09/30 10:46:22;;;;;;;;;;;19.00;48.30;;;;;;8331505;28;19925;-42
2022/09/30 10:50:24;;;;;;;;;;;19.00;48.30;;;;;;8331589;28;19919;-43
2022/09/30 10:54:43;;;;;;;;;;;19.10;48.30;;;;;;8331440;28;19939;-42
2022/09/30 10:58:53;;;;;;;;;;;19.10;48.30;;;;;;8331500;28;19949;-42
2022/09/30 11:02:57;;;;;;;;;;;19.10;48.30;;;;;;8331010;28;19956;-43
2022/09/30 11:07:10;;;;;;;;;;;19.10;48.30;;;;;;8331558;28;19917;-43
2022/09/30 11:11:17;;;;;;;;;;;19.10;48.30;;;;;;8331132;28;19913;-44
2022/09/30 11:15:17;;;;;;;;;;;19.10;48.30;;;;;;8330634;28;20450;-42
2022/09/30 11:19:23;;;;;;;;;;;19.00;48.30;;;;;;8330947;28;19921;-44
2022/09/30 11:23:26;;;;;;;;;;;19.10;48.30;;;;;;8330799;28;19939;-44
2022/09/30 11:27:27;;;;;;;;;;;19.10;48.30;;;;;;8330133;28;19917;-42
2022/09/30 11:31:30;;;;;;;;;;;19.10;48.20;;;;;;8330038;28;19920;-42
2022/09/30 11:35:40;;;;;;;;;;;19.10;48.20;;;;;;8329978;28;20082;-42
2022/09/30 11:39:44;;;;;;;;;;;19.20;48.30;;;;;;8330690;28;19925;-42
2022/09/30 11:44:00;;;;;;;;;;;19.20;48.20;;;;;;8330274;28;19921;-44
2022/09/30 11:48:18;;;;;;;;;;;19.20;48.20;;;;;;8329879;28;20301;-44
2022/09/30 11:52:29;;;;;;;;;;;19.20;48.10;;;;;;8330303;28;19923;-45
2022/09/30 11:56:37;;;;;;;;;;;19.20;48.10;;;;;;8330294;28;20285;-43
2022/09/30 12:00:41;;;;;;;;;;;19.30;48.20;;;;;;8329735;28;19925;-43
2022/09/30 12:04:42;;;;;;;;;;;19.30;48.20;;;;;;8330393;28;20302;-44
2022/09/30 12:08:48;;;;;;;;;;;19.30;48.10;;;;;;8329598;28;19925;-44
2022/09/30 12:12:52;;;;;;;;;;;19.30;48.20;;;;;;8330240;28;20333;-44
2022/09/30 12:16:55;;;;;;;;;;;19.30;48.10;;;;;;8329850;28;20393;-44
2022/09/30 12:20:58;;;;;;;;;;;19.30;48.00;;;;;;8329224;28;19925;-44
2022/09/30 12:25:00;;;;;;;;;;;19.40;48.10;;;;;;8329939;28;19914;-45
2022/09/30 12:33:45;;;;;;;;;;;19.40;48.00;;;;;;8329238;28;19924;-45
2022/09/30 12:38:14;;;;;;;;;;;19.40;48.00;;;;;;8329372;28;19921;-43
2022/09/30 12:42:20;;;;;;;;;;;19.30;48.00;;;;;;8332373;28;19922;-44
2022/09/30 12:46:30;;;;;;;;;;;19.30;48.00;;;;;;8335125;28;19981;-44
2022/09/30 12:50:33;;;;;;;;;;;19.40;48.10;;;;;;8334898;28;20314;-42
2022/09/30 12:54:35;;;;;;;;;;;19.30;48.00;;;;;;8335746;28;19983;-42
2022/09/30 12:58:37;;;;;;;;;;;19.40;48.10;;;;;;8334848;28;19925;-44
2022/09/30 13:02:40;;;;;;;;;;;19.40;48.10;;;;;;8334376;28;19936;-43
2022/09/30 13:06:43;;;;;;;;;;;19.30;48.10;;;;;;8334857;28;19921;-43
2022/09/30 13:10:46;;;;;;;;;;;19.30;48.10;;;;;;8314940;28;20024;-44
2022/09/30 13:14:46;;;;;;;;;;;19.30;48.10;;;;;;8321553;28;19925;-42
2022/09/30 13:18:46;;;;;;;;;;;19.30;48.00;;;;;;8325765;28;20294;-43
2022/09/30 13:22:53;;;;;;;;;;;19.30;48.00;;;;;;8345008;28;20395;-44
2022/09/30 13:27:06;;;;;;;;;;;19.30;48.00;;;;;;8307896;28;20273;-44
2022/09/30 13:31:17;;;;;;;;;;;19.30;48.00;;;;;;8307957;28;20287;-43
2022/09/30 13:35:36;;;;;;;;;;;19.40;48.10;;;;;;8315176;28;20000;-43
2022/09/30 13:39:48;;;;;;;;;;;19.40;48.00;;;;;;8301140;28;19934;-43
2022/09/30 13:44:02;;;;;;;;;;;19.30;48.00;;;;;;8323076;28;19917;-43
2022/09/30 13:48:09;;;;;;;;;;;19.30;48.00;;;;;;8333153;28;19917;-43
2022/09/30 13:52:17;;;;;;;;;;;19.40;47.90;;;;;;8331303;28;20438;-43
2022/09/30 13:56:19;;;;;;;;;;;19.40;47.90;;;;;;8344556;28;20023;-42
2022/09/30 14:00:21;;;;;;;;;;;19.40;47.90;;;;;;8358705;28;20266;-43
2022/09/30 14:04:39;;;;;;;;;;;19.40;47.90;;;;;;8320494;28;20293;-43
2022/09/30 14:08:40;;;;;;;;;;;19.40;47.80;;;;;;8306453;28;19924;-44
2022/09/30 14:13:01;;;;;;;;;;;19.40;47.80;;;;;;8310640;28;19921;-43
2022/09/30 14:17:17;;;;;;;;;;;19.40;47.80;;;;;;8310408;28;19917;-43
2022/09/30 14:21:33;;;;;;;;;;;19.40;47.80;;;;;;8304213;28;20401;-43
2022/09/30 14:25:38;;;;;;;;;;;19.40;47.80;;;;;;8306739;28;19921;-43
2022/09/30 14:29:57;;;;;;;;;;;19.40;47.80;;;;;;8305237;28;20012;-43
2022/09/30 14:33:58;;;;;;;;;;;19.40;47.80;;;;;;8301853;28;19971;-43
2022/09/30 14:38:13;;;;;;;;;;;19.40;47.80;;;;;;8322460;28;19921;-42
2022/09/30 14:42:23;;;;;;;;;;;19.40;47.80;;;;;;8310790;28;19917;-42
2022/09/30 14:46:34;;;;;;;;;;;19.40;47.80;;;;;;8300713;28;20386;-43
2022/09/30 14:50:47;;;;;;;;;;;19.50;47.80;;;;;;8311701;28;19922;-42
2022/09/30 14:54:47;;;;;;;;;;;19.40;47.80;;;;;;8303297;28;19917;-42
2022/09/30 14:58:51;;;;;;;;;;;19.50;47.80;;;;;;8340075;28;20008;-42
2022/09/30 15:02:52;;;;;;;;;;;19.40;47.70;;;;;;8362504;28;19917;-42
2022/09/30 15:06:53;;;;;;;;;;;19.50;47.80;;;;;;8309788;28;19925;-43
2022/09/30 15:10:54;;;;;;;;;;;19.40;47.80;;;;;;8345669;28;20384;-43
2022/09/30 15:14:56;;;;;;;;;;;19.40;47.80;;;;;;8314195;28;19917;-43
2022/09/30 15:18:56;;;;;;;;;;;19.50;47.80;;;;;;8327856;28;20313;-43
2022/09/30 15:22:59;;;;;;;;;;;19.40;47.80;;;;;;8326766;28;19937;-44
2022/09/30 15:27:01;;;;;;;;;;;19.50;47.80;;;;;;8330460;28;19917;-43
2022/09/30 15:31:03;;;;;;;;;;;19.40;47.80;;;;;;8343610;28;19917;-43
2022/09/30 15:35:12;;;;;;;;;;;19.40;47.80;;;;;;8327344;28;19917;-43
2022/09/30 15:43:49;;;;;;;;;;;19.40;47.80;;;;;;8316797;28;19963;-43
2022/09/30 15:47:52;;;;;;;;;;;19.40;47.80;;;;;;8324165;28;19932;-43
2022/09/30 15:51:53;;;;;;;;;;;19.40;47.80;;;;;;8330116;28;19919;-43
2022/09/30 15:55:55;;;;;;;;;;;19.40;47.80;;;;;;8330238;28;20367;-43
2022/09/30 15:59:57;;;;;;;;;;;19.40;47.80;;;;;;8329579;28;19925;-43
2022/09/30 16:03:59;;;;;;;;;;;19.40;47.80;;;;;;8329432;28;20007;-43
2022/09/30 16:08:00;;;;;;;;;;;19.40;47.90;;;;;;8329910;28;19948;-43
2022/09/30 16:12:12;;;;;;;;;;;19.40;47.90;;;;;;8329442;28;19917;-43
2022/09/30 16:16:20;;;;;;;;;;;19.40;47.90;;;;;;8331923;28;19913;-45
2022/09/30 16:20:22;;;;;;;;;;;19.40;47.90;;;;;;8336334;28;19925;-43
2022/09/30 16:24:28;;;;;;;;;;;19.40;47.90;;;;;;8335907;28;19918;-43
2022/09/30 16:28:29;;;;;;;;;;;19.40;48.00;;;;;;8336283;28;19921;-43
2022/09/30 16:32:31;;;;;;;;;;;19.40;47.90;;;;;;8336129;28;19971;-42
2022/09/30 16:36:32;;;;;;;;;;;19.40;47.90;;;;;;8336049;28;19925;-42
2022/09/30 16:40:34;;;;;;;;;;;19.40;48.00;;;;;;8335606;28;19976;-43
2022/09/30 16:44:36;;;;;;;;;;;19.40;48.00;;;;;;8335260;28;19917;-43
2022/09/30 16:48:38;;;;;;;;;;;19.40;48.00;;;;;;8335498;28;19917;-43
2022/09/30 16:52:39;;;;;;;;;;;19.40;48.00;;;;;;8335599;28;19940;-42
2022/09/30 16:56:39;;;;;;;;;;;19.40;48.00;;;;;;8335116;28;19913;-43
2022/09/30 17:00:43;;;;;;;;;;;19.40;48.00;;;;;;8334960;28;19925;-42
2022/09/30 17:04:44;;;;;;;;;;;19.40;48.00;;;;;;8335103;28;19917;-41
2022/09/30 17:08:47;;;;;;;;;;;19.40;48.00;;;;;;8334467;28;20019;-42
2022/09/30 17:12:49;;;;;;;;;;;19.40;48.00;;;;;;8334757;28;19917;-41
2022/09/30 17:16:49;;;;;;;;;;;19.40;48.00;;;;;;8335123;28;19917;-42
2022/09/30 17:20:51;;;;;;;;;;;19.40;48.00;;;;;;8333962;28;20405;-42
2022/09/30 17:24:52;;;;;;;;;;;19.40;48.00;;;;;;8334621;28;20008;-42
2022/09/30 17:28:52;;;;;;;;;;;19.40;48.00;;;;;;8333325;28;19917;-42
2022/09/30 17:32:53;;;;;;;;;;;19.30;48.00;;;;;;8333713;28;19917;-42
2022/09/30 17:36:54;;;;;;;;;;;19.30;48.00;;;;;;8334139;28;19960;-42
2022/09/30 17:45:14;;;;;;;;;;;19.40;48.10;;;;;;8333245;28;19924;-42
2022/09/30 17:49:16;;;;;;;;;;;19.30;48.10;;;;;;8333487;28;19999;-42
2022/09/30 17:53:17;;;;;;;;;;;19.30;48.10;;;;;;8333442;28;19917;-42
2022/09/30 17:57:18;;;;;;;;;;;19.30;48.10;;;;;;8333234;28;19917;-41
2022/09/30 18:01:19;;;;;;;;;;;19.30;48.10;;;;;;8333152;28;19963;-42
2022/09/30 18:05:20;;;;;;;;;;;19.30;48.10;;;;;;8333110;28;19940;-43
2022/09/30 18:09:21;;;;;;;;;;;19.30;48.10;;;;;;8332528;28;19917;-42
2022/09/30 18:13:22;;;;;;;;;;;19.30;48.10;;;;;;8333009;28;20293;-42
2022/09/30 18:17:24;;;;;;;;;;;19.30;48.20;;;;;;8333193;28;19971;-43
2022/09/30 18:21:24;;;;;;;;;;;19.30;48.20;;;;;;8332129;28;19935;-44
2022/09/30 18:25:25;;;;;;;;;;;19.30;48.20;;;;;;8332436;28;19921;-43
2022/09/30 18:29:25;;;;;;;;;;;19.30;48.20;;;;;;8332537;28;20397;-43
2022/09/30 18:33:26;;;;;;;;;;;19.30;48.20;;;;;;8331901;28;19917;-42
2022/09/30 18:37:27;;;;;;;;;;;19.30;48.30;;;;;;8332418;28;20289;-41
2022/09/30 18:41:28;;;;;;;;;;;19.30;48.20;;;;;;8331987;28;20311;-41
2022/09/30 18:45:31;;;;;;;;;;;19.30;48.20;;;;;;8331357;28;19971;-42
2022/09/30 18:49:31;;;;;;;;;;;19.30;48.20;;;;;;8331690;28;19917;-42
2022/09/30 18:53:33;;;;;;;;;;;19.30;48.20;;;;;;8331190;28;19978;-42
2022/09/30 18:57:33;;;;;;;;;;;19.30;48.20;;;;;;8332006;28;20385;-43
2022/09/30 19:01:34;;;;;;;;;;;19.30;48.20;;;;;;8331459;28;19984;-43
2022/09/30 19:05:35;;;;;;;;;;;19.30;48.20;;;;;;8330261;28;19921;-43
2022/09/30 19:09:36;;;;;;;;;;;19.30;48.10;;;;;;8331485;28;19917;-43
2022/09/30 19:13:36;;;;;;;;;;;19.30;48.20;;;;;;8330904;28;20378;-43
2022/09/30 19:17:37;;;;;;;;;;;19.30;48.20;;;;;;8330752;28;19921;-43
2022/09/30 19:21:37;;;;;;;;;;;19.30;48.20;;;;;;8330857;28;19917;-43
2022/09/30 19:25:38;;;;;;;;;;;19.30;48.20;;;;;;8330709;28;20344;-42
2022/09/30 19:29:39;;;;;;;;;;;19.30;48.20;;;;;;8330228;28;19921;-43
2022/09/30 19:33:43;;;;;;;;;;;19.30;48.20;;;;;;8330842;28;19981;-42
2022/09/30 19:37:45;;;;;;;;;;;19.30;48.20;;;;;;8330591;28;19960;-42
2022/09/30 19:41:46;;;;;;;;;;;19.30;48.30;;;;;;8330095;28;20019;-43
2022/09/30 19:45:52;;;;;;;;;;;19.30;48.30;;;;;;8330618;28;19917;-42
2022/09/30 19:49:53;;;;;;;;;;;19.30;48.30;;;;;;8328872;28;19917;-43
2022/09/30 19:53:54;;;;;;;;;;;19.30;48.30;;;;;;8329678;28;19924;-42
2022/09/30 19:57:54;;;;;;;;;;;19.30;48.40;;;;;;8330557;28;19932;-43
2022/09/30 20:01:55;;;;;;;;;;;19.30;48.40;;;;;;8330267;28;19921;-43
2022/09/30 20:06:00;;;;;;;;;;;19.30;48.30;;;;;;8329661;28;19917;-42
2022/09/30 20:10:01;;;;;;;;;;;19.20;48.30;;;;;;8330212;28;19917;-43
2022/09/30 20:18:22;;;;;;;;;;;19.20;48.30;;;;;;8329670;28;19931;-42
2022/09/30 20:22:23;;;;;;;;;;;19.20;48.30;;;;;;8329911;28;19923;-42
2022/09/30 20:26:23;;;;;;;;;;;19.30;48.30;;;;;;8329715;28;19917;-42
2022/09/30 20:30:25;;;;;;;;;;;19.30;48.30;;;;;;8329292;28;20379;-42
2022/09/30 20:34:26;;;;;;;;;;;19.20;48.30;;;;;;8329820;28;19921;-42
2022/09/30 20:38:26;;;;;;;;;;;19.20;48.30;;;;;;8329463;28;19987;-41
2022/09/30 20:42:29;;;;;;;;;;;19.30;48.30;;;;;;8329192;28;19937;-42
2022/09/30 20:46:30;;;;;;;;;;;19.30;48.30;;;;;;8329582;28;19917;-42
2022/09/30 20:50:34;;;;;;;;;;;19.20;48.20;;;;;;8328931;28;19917;-42
2022/09/30 20:54:34;;;;;;;;;;;19.20;48.20;;;;;;8329211;28;19971;-42
2022/09/30 20:58:36;;;;;;;;;;;19.30;48.20;;;;;;8329092;28;20301;-42
2022/09/30 21:02:36;;;;;;;;;;;19.20;48.30;;;;;;8329635;28;20008;-42
2022/09/30 21:06:36;;;;;;;;;;;19.20;48.30;;;;;;8334964;28;19921;-42
2022/09/30 21:10:37;;;;;;;;;;;19.20;48.20;;;;;;8334559;28;19917;-43
2022/09/30 21:14:39;;;;;;;;;;;19.20;48.20;;;;;;8334394;28;20024;-42
2022/09/30 21:18:39;;;;;;;;;;;19.20;48.20;;;;;;8343653;28;19932;-44
2022/09/30 21:22:41;;;;;;;;;;;19.20;48.20;;;;;;8334892;28;20264;-43
2022/09/30 21:26:42;;;;;;;;;;;19.20;48.20;;;;;;8334048;28;19921;-43
2022/09/30 21:30:42;;;;;;;;;;;19.20;48.10;;;;;;8334309;28;19923;-42
2022/09/30 21:34:43;;;;;;;;;;;19.20;48.10;;;;;;8334192;28;19917;-42
2022/09/30 21:38:43;;;;;;;;;;;19.20;48.20;;;;;;8333620;28;19925;-43
2022/09/30 21:42:44;;;;;;;;;;;19.20;48.10;;;;;;8333802;28;19917;-43
2022/09/30 21:46:45;;;;;;;;;;;19.20;48.10;;;;;;8333971;28;19996;-43
2022/09/30 21:50:45;;;;;;;;;;;19.20;48.10;;;;;;8333163;28;19951;-42
2022/09/30 21:54:46;;;;;;;;;;;19.20;48.10;;;;;;8333406;28;20332;-42
2022/09/30 21:58:46;;;;;;;;;;;19.20;48.10;;;;;;8332285;28;20386;-43
2022/09/30 22:02:47;;;;;;;;;;;19.10;48.10;;;;;;8310821;28;19917;-42
2022/09/30 22:06:47;;;;;;;;;;;19.10;48.10;;;;;;8324021;28;19917;-42
2022/09/30 22:10:49;;;;;;;;;;;19.20;48.10;;;;;;8331988;28;19917;-42
2022/09/30 22:14:50;;;;;;;;;;;19.10;48.00;;;;;;8332059;28;19994;-42
2022/09/30 22:18:52;;;;;;;;;;;19.10;48.00;;;;;;8332807;28;19929;-43
2022/09/30 22:22:52;;;;;;;;;;;19.10;48.10;;;;;;8332723;28;19921;-43
2022/09/30 22:26:53;;;;;;;;;;;19.10;48.00;;;;;;8332079;28;19926;-42
2022/09/30 22:30:53;;;;;;;;;;;19.10;48.00;;;;;;8332697;28;19917;-42
2022/09/30 22:39:13;;;;;;;;;;;19.10;48.00;;;;;;8332016;28;19933;-43
2022/09/30 22:43:14;;;;;;;;;;;19.10;48.00;;;;;;8332359;28;19917;-43
2022/09/30 22:47:14;;;;;;;;;;;19.10;48.00;;;;;;8331985;28;20370;-42
2022/09/30 22:51:15;;;;;;;;;;;19.10;48.00;;;;;;8331306;28;19940;-42
2022/09/30 22:55:16;;;;;;;;;;;19.10;48.00;;;;;;8331557;28;19917;-43
2022/09/30 22:59:16;;;;;;;;;;;19.00;48.00;;;;;;8331576;28;19924;-43
2022/09/30 23:03:17;;;;;;;;;;;19.00;48.00;;;;;;8330913;28;19924;-42
2022/09/30 23:07:17;;;;;;;;;;;19.00;47.90;;;;;;8331474;28;19968;-43
2022/09/30 23:11:18;;;;;;;;;;;19.00;47.90;;;;;;8330991;28;19917;-44
2022/09/30 23:15:18;;;;;;;;;;;19.00;47.90;;;;;;8330544;28;19917;-43
2022/09/30 23:19:19;;;;;;;;;;;19.00;47.90;;;;;;8330965;28;19929;-43
2022/09/30 23:23:19;;;;;;;;;;;19.00;47.90;;;;;;8330732;28;19917;-43
2022/09/30 23:27:20;;;;;;;;;;;19.00;47.90;;;;;;8329633;28;20371;-43
2022/09/30 23:31:20;;;;;;;;;;;19.00;48.00;;;;;;8330628;28;20394;-43
2022/09/30 23:35:20;;;;;;;;;;;19.00;47.90;;;;;;8330386;28;20382;-42
2022/09/30 23:39:21;;;;;;;;;;;19.00;48.00;;;;;;8330088;28;19932;-43
2022/09/30 23:43:21;;;;;;;;;;;18.90;47.90;;;;;;8330508;28;19956;-43
2022/09/30 23:47:22;;;;;;;;;;;19.00;47.90;;;;;;8330171;28;20358;-43
2022/09/30 23:51:23;;;;;;;;;;;18.90;47.90;;;;;;8329658;28;20382;-43
2022/09/30 23:55:24;;;;;;;;;;;18.90;47.90;;;;;;8330307;28;19921;-43
2022/09/30 23:59:24;;;;;;;;;;;18.90;47.80;;;;;;8330304;28;20433;-43
